Time;durP1;ratioP1;P1;durP2;ratioP2;P2;SDS_P1;SDS_P2;PMS_P1;PMS_P2;Temp;Humidity;BMP_temperature;BMP_pressure;BME280_temperature;BME280_humidity;BME280_pressure;Samples;Min_cycle;Max_cycle;Signal;HPM_P1;HPM_P2
2021/04/04 00:01:56;;;;;;;17.27;4.33;;;8.40;54.60;;;;;;4342806;32;20101;-36
2021/04/04 00:04:22;;;;;;;28.03;4.63;;;8.50;54.50;;;;;;4330914;33;20650;-36
2021/04/04 00:06:49;;;;;;;26.87;5.27;;;8.50;54.40;;;;;;4313140;33;20083;-38
2021/04/04 00:09:19;;;;;;;17.20;3.77;;;8.50;54.30;;;;;;4298750;33;20528;-38
2021/04/04 00:11:47;;;;;;;21.60;3.83;;;8.60;54.30;;;;;;4298689;33;20075;-37
2021/04/04 00:14:14;;;;;;;17.90;3.90;;;8.70;54.20;;;;;;4298634;33;20063;-37
2021/04/04 00:16:40;;;;;;;28.93;5.30;;;8.70;54.00;;;;;;4298846;33;20184;-38
2021/04/04 00:19:07;;;;;;;34.90;4.90;;;8.80;53.80;;;;;;4298713;33;20068;-37
2021/04/04 00:21:34;;;;;;;16.13;3.43;;;8.80;53.90;;;;;;4298508;33;20159;-36
2021/04/04 00:24:03;;;;;;;26.60;5.63;;;8.80;53.90;;;;;;4298556;33;20662;-36
2021/04/04 00:26:30;;;;;;;24.12;3.47;;;8.70;53.80;;;;;;4298361;33;20076;-36
2021/04/04 00:28:56;;;;;;;4.23;0.93;;;8.70;54.00;;;;;;4298498;33;20083;-36
2021/04/04 00:31:23;;;;;;;8.43;1.63;;;8.70;54.20;;;;;;4298378;33;20496;-36
2021/04/04 00:33:49;;;;;;;6.77;1.97;;;8.70;54.60;;;;;;4298534;33;20527;-36
2021/04/04 00:36:16;;;;;;;23.65;4.50;;;8.70;54.70;;;;;;4309755;33;20064;-36
2021/04/04 00:38:42;;;;;;;12.57;5.17;;;8.70;55.00;;;;;;4312666;33;20087;-36
2021/04/04 00:41:09;;;;;;;17.05;5.60;;;8.70;55.20;;;;;;4313435;33;20547;-37
2021/04/04 00:43:35;;;;;;;6.67;2.97;;;8.70;55.50;;;;;;4320701;32;20143;-37
2021/04/04 00:46:02;;;;;;;9.03;5.17;;;8.50;55.70;;;;;;4359314;32;20553;-36
2021/04/04 00:48:28;;;;;;;20.47;8.73;;;8.40;56.00;;;;;;4359307;32;20081;-36
2021/04/04 00:50:55;;;;;;;16.70;8.63;;;8.30;56.40;;;;;;4359303;32;20067;-34
2021/04/04 00:53:21;;;;;;;12.27;4.97;;;8.20;56.80;;;;;;4358158;32;20061;-36
2021/04/04 00:55:48;;;;;;;19.83;10.07;;;8.10;56.90;;;;;;4358155;32;20078;-36
2021/04/04 00:58:14;;;;;;;15.20;7.77;;;8.00;57.40;;;;;;4357635;32;20153;-35
2021/04/04 01:00:40;;;;;;;18.73;10.40;;;8.00;57.70;;;;;;4359342;32;20070;-36
2021/04/04 01:03:07;;;;;;;15.17;7.47;;;7.70;58.40;;;;;;4357932;32;20534;-36
2021/04/04 01:05:39;;;;;;;19.93;9.23;;;7.60;58.70;;;;;;4357564;32;20063;-36
2021/04/04 01:08:06;;;;;;;21.50;9.53;;;7.60;59.10;;;;;;4359190;32;20579;-37
2021/04/04 01:10:39;;;;;;;16.97;6.87;;;7.50;59.30;;;;;;4357468;32;20143;-37
2021/04/04 01:13:44;;;;;;;16.77;5.93;;;7.40;59.50;;;;;;4357695;32;20054;-39
2021/04/04 01:16:17;;;;;;;18.17;6.13;;;7.40;59.50;;;;;;4326291;33;20085;-39
2021/04/04 01:18:56;;;;;;;12.43;4.53;;;7.30;59.60;;;;;;4314671;33;20665;-39
2021/04/04 01:21:48;;;;;;;23.47;9.17;;;7.40;59.70;;;;;;4303111;33;20475;-38
2021/04/04 01:25:04;;;;;;;15.10;6.20;;;7.40;59.50;;;;;;4314929;33;20094;-39
2021/04/04 01:27:54;;;;;;;19.57;8.07;;;7.30;59.80;;;;;;4326494;33;20099;-40
2021/04/04 01:30:25;;;;;;;19.97;7.43;;;7.20;60.10;;;;;;4314523;33;20105;-40
2021/04/04 01:32:51;;;;;;;16.37;7.03;;;7.10;60.30;;;;;;4326371;33;20605;-40
2021/04/04 01:35:19;;;;;;;20.70;9.47;;;7.10;60.60;;;;;;4312051;33;20145;-40
2021/04/04 01:37:46;;;;;;;22.50;7.13;;;7.00;60.70;;;;;;4299791;33;20111;-40
2021/04/04 01:40:16;;;;;;;16.63;7.97;;;6.90;61.00;;;;;;4287980;33;20511;-41
2021/04/04 01:42:43;;;;;;;20.97;7.17;;;6.90;61.00;;;;;;4299932;33;20154;-41
2021/04/04 01:45:10;;;;;;;19.00;8.50;;;6.90;61.00;;;;;;4311478;33;20193;-42
2021/04/04 01:47:37;;;;;;;20.20;9.57;;;6.90;61.00;;;;;;4311560;33;20593;-41
2021/04/04 01:50:08;;;;;;;19.93;8.80;;;6.90;61.10;;;;;;4299496;33;20070;-41
2021/04/04 01:52:34;;;;;;;16.80;7.27;;;6.90;61.20;;;;;;4335299;33;20071;-42
2021/04/04 01:55:01;;;;;;;19.13;10.07;;;6.90;61.20;;;;;;4341796;32;20054;-42
2021/04/04 01:57:28;;;;;;;16.77;8.03;;;6.80;61.40;;;;;;4330007;33;20058;-44
2021/04/04 01:59:54;;;;;;;18.70;9.87;;;6.70;61.50;;;;;;4329405;33;20055;-44
2021/04/04 02:02:21;;;;;;;15.33;7.30;;;6.70;61.30;;;;;;4343240;33;20078;-45
2021/04/04 02:04:47;;;;;;;16.33;9.37;;;6.70;61.50;;;;;;4329491;33;20078;-44
2021/04/04 02:07:15;;;;;;;14.67;8.43;;;6.70;61.40;;;;;;4329689;33;20554;-43
2021/04/04 02:09:42;;;;;;;13.17;5.37;;;6.60;61.70;;;;;;4329759;33;20063;-43
2021/04/04 02:12:09;;;;;;;14.57;6.43;;;6.50;61.90;;;;;;4329753;33;20075;-43
2021/04/04 02:14:35;;;;;;;6.93;3.03;;;6.50;61.90;;;;;;4329472;33;20566;-43
2021/04/04 02:17:04;;;;;;;9.53;3.97;;;6.60;62.00;;;;;;4341858;33;20059;-43
2021/04/04 02:19:30;;;;;;;13.00;5.60;;;6.60;61.80;;;;;;4317683;33;20156;-43
2021/04/04 02:21:58;;;;;;;10.73;5.27;;;6.60;61.50;;;;;;4330080;33;20077;-40
2021/04/04 02:24:29;;;;;;;11.60;5.83;;;6.60;61.50;;;;;;4343755;32;20538;-41
2021/04/04 02:26:57;;;;;;;10.87;6.77;;;6.50;61.70;;;;;;4345702;32;20087;-42
2021/04/04 02:29:23;;;;;;;10.23;4.80;;;6.40;61.90;;;;;;4332666;33;20202;-42
2021/04/04 02:31:56;;;;;;;14.13;7.43;;;6.40;62.20;;;;;;4345242;33;20468;-42
2021/04/04 02:34:35;;;;;;;5.47;3.03;;;6.30;62.10;;;;;;4344833;33;20573;-41
2021/04/04 02:37:04;;;;;;;8.63;3.10;;;6.40;62.00;;;;;;4344955;33;20055;-41
2021/04/04 02:39:37;;;;;;;8.80;4.13;;;6.40;62.10;;;;;;4344927;32;20471;-42
2021/04/04 02:42:04;;;;;;;10.40;6.33;;;6.30;62.20;;;;;;4332702;33;20135;-42
2021/04/04 02:44:31;;;;;;;9.73;6.50;;;6.30;62.20;;;;;;4344596;33;20085;-42
2021/04/04 02:47:05;;;;;;;4.93;2.90;;;6.10;62.60;;;;;;4345113;33;20175;-43
2021/04/04 02:49:35;;;;;;;12.13;6.87;;;6.00;63.00;;;;;;4344440;32;20150;-42
2021/04/04 02:52:06;;;;;;;10.50;6.77;;;6.00;63.10;;;;;;4344669;33;20058;-43
2021/04/04 02:54:35;;;;;;;11.20;6.60;;;5.90;63.30;;;;;;4344307;33;20130;-43
2021/04/04 02:57:02;;;;;;;7.13;3.87;;;5.90;63.30;;;;;;4332475;33;20090;-44
2021/04/04 02:59:42;;;;;;;11.10;6.30;;;5.90;63.40;;;;;;4344226;33;20059;-43
2021/04/04 03:02:10;;;;;;;10.00;5.93;;;5.90;63.70;;;;;;4345953;33;20059;-43
2021/04/04 03:04:36;;;;;;;11.27;5.83;;;5.80;63.80;;;;;;4344547;33;20062;-45
2021/04/04 03:07:06;;;;;;;7.57;3.77;;;5.80;64.10;;;;;;4344384;33;20050;-43
2021/04/04 03:09:33;;;;;;;8.33;4.63;;;5.70;64.30;;;;;;4332453;33;20209;-41
2021/04/04 03:12:00;;;;;;;10.73;5.33;;;5.80;64.40;;;;;;4332322;33;20102;-43
2021/04/04 03:14:26;;;;;;;16.13;6.53;;;5.80;64.30;;;;;;4332048;33;20067;-43
2021/04/04 03:16:53;;;;;;;9.63;5.63;;;5.80;64.10;;;;;;4344529;32;20082;-43
2021/04/04 03:19:19;;;;;;;9.03;4.00;;;5.90;64.60;;;;;;4345633;33;20065;-42
2021/04/04 03:21:46;;;;;;;10.57;5.90;;;5.90;64.10;;;;;;4344022;32;20102;-42
2021/04/04 03:24:13;;;;;;;11.20;5.93;;;6.00;63.90;;;;;;4344318;32;20512;-44
2021/04/04 03:26:40;;;;;;;10.63;6.70;;;6.00;63.80;;;;;;4344086;33;20062;-42
2021/04/04 03:29:07;;;;;;;13.70;6.70;;;5.90;64.10;;;;;;4344491;32;20083;-41
2021/04/04 03:31:34;;;;;;;12.07;6.77;;;5.90;64.10;;;;;;4344312;32;20089;-46
2021/04/04 03:34:00;;;;;;;9.73;5.37;;;5.90;64.10;;;;;;4332059;33;20059;-48
2021/04/04 03:36:27;;;;;;;10.73;5.87;;;5.90;64.30;;;;;;4356317;32;20063;-49
2021/04/04 03:38:54;;;;;;;11.67;6.47;;;5.90;64.20;;;;;;4358449;32;20146;-46
2021/04/04 03:41:28;;;;;;;7.60;4.47;;;6.00;64.30;;;;;;4359136;32;20081;-46
2021/04/04 03:43:54;;;;;;;10.23;6.60;;;5.90;64.40;;;;;;4360399;32;20059;-44
2021/04/04 03:46:30;;;;;;;10.07;5.40;;;6.00;64.40;;;;;;4345388;32;20104;-44
2021/04/04 03:48:56;;;;;;;10.03;4.50;;;6.00;64.40;;;;;;4333609;32;20082;-43
2021/04/04 03:51:24;;;;;;;10.00;6.30;;;6.00;64.30;;;;;;4345750;32;20109;-41
2021/04/04 03:53:52;;;;;;;11.00;6.40;;;6.00;64.20;;;;;;4345655;32;20086;-43
2021/04/04 03:56:29;;;;;;;7.17;3.23;;;6.00;64.40;;;;;;4358133;32;20074;-42
2021/04/04 03:58:57;;;;;;;8.60;5.30;;;6.00;64.50;;;;;;4357607;32;20087;-38
2021/04/04 04:01:25;;;;;;;6.97;4.23;;;6.00;64.40;;;;;;4333668;32;20109;-40
2021/04/04 04:03:53;;;;;;;9.30;5.23;;;5.90;64.50;;;;;;4332812;32;20549;-39
2021/04/04 04:06:19;;;;;;;9.80;6.03;;;5.90;64.40;;;;;;4332866;32;20086;-42
2021/04/04 04:08:46;;;;;;;9.57;4.90;;;5.80;64.70;;;;;;4332610;32;20143;-40
2021/04/04 04:11:14;;;;;;;8.60;5.40;;;5.80;64.80;;;;;;4320954;32;20519;-39
2021/04/04 04:13:40;;;;;;;7.80;4.43;;;5.80;64.90;;;;;;4332979;32;21193;-39
2021/04/04 04:16:09;;;;;;;10.77;5.80;;;5.80;64.90;;;;;;4357418;32;20581;-39
2021/04/04 04:18:43;;;;;;;6.40;3.93;;;5.90;64.80;;;;;;4357486;32;20546;-40
2021/04/04 04:21:13;;;;;;;11.00;6.53;;;5.90;65.00;;;;;;4346293;32;20074;-42
2021/04/04 04:23:40;;;;;;;5.73;3.10;;;6.00;64.80;;;;;;4358292;32;20062;-42
2021/04/04 04:26:12;;;;;;;10.57;5.10;;;6.00;64.90;;;;;;4358184;32;20465;-43
2021/04/04 04:28:40;;;;;;;9.67;3.73;;;6.00;64.80;;;;;;4358381;32;20085;-44
2021/04/04 04:31:24;;;;;;;8.90;3.77;;;6.00;64.90;;;;;;4346194;32;20163;-43
2021/04/04 04:33:53;;;;;;;9.97;5.63;;;6.10;64.80;;;;;;4358325;32;20537;-42
2021/04/04 04:36:19;;;;;;;6.97;4.33;;;6.10;64.60;;;;;;4346964;32;20058;-42
2021/04/04 04:38:46;;;;;;;7.43;3.03;;;6.10;64.70;;;;;;4331352;33;20264;-43
2021/04/04 04:41:12;;;;;;;9.60;3.70;;;6.10;64.70;;;;;;4343400;33;20067;-43
2021/04/04 04:43:42;;;;;;;8.20;4.83;;;6.10;64.70;;;;;;4318880;33;20075;-44
2021/04/04 04:46:09;;;;;;;8.47;4.43;;;6.20;64.60;;;;;;4343153;33;20062;-43
2021/04/04 04:48:35;;;;;;;6.93;3.07;;;6.20;64.70;;;;;;4330926;33;20067;-41
2021/04/04 04:51:02;;;;;;;7.40;3.83;;;6.20;64.70;;;;;;4318630;33;20543;-41
2021/04/04 04:53:28;;;;;;;7.17;3.70;;;6.30;64.60;;;;;;4342816;33;20143;-41
2021/04/04 04:56:02;;;;;;;8.97;4.60;;;6.40;64.40;;;;;;4342706;33;20131;-41
2021/04/04 04:58:30;;;;;;;9.90;5.33;;;6.40;64.40;;;;;;4344489;32;20063;-42
2021/04/04 05:01:05;;;;;;;5.30;3.40;;;6.50;64.30;;;;;;4344692;32;20091;-44
2021/04/04 05:03:32;;;;;;;9.07;5.80;;;6.60;64.30;;;;;;4344217;32;20058;-43
2021/04/04 05:06:09;;;;;;;9.87;5.17;;;6.60;64.10;;;;;;4343252;33;20067;-43
2021/04/04 05:08:39;;;;;;;8.27;4.97;;;6.60;64.10;;;;;;4343108;33;20170;-41
2021/04/04 05:11:10;;;;;;;9.40;3.53;;;6.60;64.00;;;;;;4343697;33;20155;-43
2021/04/04 05:13:40;;;;;;;5.53;2.87;;;6.70;64.20;;;;;;4330835;33;20063;-40
2021/04/04 05:16:12;;;;;;;7.43;5.00;;;6.80;64.10;;;;;;4342687;33;20067;-40
2021/04/04 05:18:49;;;;;;;7.90;4.00;;;6.80;63.80;;;;;;4326932;33;20067;-42
2021/04/04 05:21:33;;;;;;;7.27;4.10;;;6.90;63.80;;;;;;4327560;33;20055;-43
2021/04/04 05:24:02;;;;;;;8.30;4.33;;;6.90;63.60;;;;;;4326949;33;20056;-44
2021/04/04 05:26:31;;;;;;;8.17;3.70;;;7.00;63.60;;;;;;4327262;33;20063;-43
2021/04/04 05:29:04;;;;;;;5.53;3.17;;;7.00;63.40;;;;;;4327338;33;20431;-43
2021/04/04 05:31:31;;;;;;;6.57;3.47;;;7.10;63.30;;;;;;4327100;33;20090;-42
2021/04/04 05:33:58;;;;;;;7.53;4.03;;;7.10;63.00;;;;;;4327057;33;20063;-48
2021/04/04 05:36:25;;;;;;;6.10;2.03;;;7.10;63.00;;;;;;4326822;33;20098;-47
2021/04/04 05:38:58;;;;;;;4.70;2.60;;;7.20;63.00;;;;;;4329037;33;20078;-52
2021/04/04 05:41:28;;;;;;;4.37;1.97;;;7.30;63.00;;;;;;4341546;33;20152;-49
2021/04/04 05:43:59;;;;;;;6.03;3.73;;;7.30;62.80;;;;;;4329118;33;20073;-50
2021/04/04 05:46:57;;;;;;;7.17;4.07;;;7.40;62.50;;;;;;4329352;33;20074;-49
2021/04/04 05:49:34;;;;;;;6.90;3.30;;;7.40;62.20;;;;;;4340831;33;20157;-48
2021/04/04 05:52:26;;;;;;;6.37;4.00;;;7.50;62.30;;;;;;4329228;33;20094;-46
2021/04/04 05:55:15;;;;;;;6.33;3.50;;;7.50;62.10;;;;;;4330759;33;20148;-47
2021/04/04 05:57:52;;;;;;;5.93;2.70;;;7.50;62.00;;;;;;4358261;32;20054;-45
2021/04/04 06:00:19;;;;;;;7.10;3.97;;;7.60;62.20;;;;;;4358171;32;20158;-44
2021/04/04 06:03:13;;;;;;;9.23;5.23;;;7.60;61.90;;;;;;4332120;32;20063;-43
2021/04/04 06:06:18;;;;;;;7.27;5.10;;;7.70;61.80;;;;;;4357685;32;20469;-45
2021/04/04 06:09:32;;;;;;;8.37;3.50;;;7.70;61.20;;;;;;4327264;32;20280;-43
2021/04/04 06:12:38;;;;;;;5.20;3.30;;;7.70;61.20;;;;;;4357332;32;20542;-43
2021/04/04 06:15:26;;;;;;;6.00;3.27;;;7.70;61.10;;;;;;4357509;32;20085;-43
2021/04/04 06:18:04;;;;;;;9.47;5.03;;;7.80;61.00;;;;;;4357356;32;20070;-47
2021/04/04 06:20:58;;;;;;;5.87;3.00;;;7.70;60.90;;;;;;4357206;32;20549;-47
2021/04/04 06:23:39;;;;;;;11.27;5.90;;;7.80;61.00;;;;;;4357269;32;20054;-47
2021/04/04 06:26:26;;;;;;;6.40;3.60;;;7.80;60.70;;;;;;4358356;32;20145;-45
2021/04/04 06:29:23;;;;;;;10.00;6.43;;;7.80;60.90;;;;;;4356655;32;20054;-44
2021/04/04 06:32:09;;;;;;;5.43;3.23;;;7.80;60.90;;;;;;4345512;32;20125;-47
2021/04/04 06:34:50;;;;;;;4.97;1.87;;;7.90;61.10;;;;;;4356095;32;20473;-44
2021/04/04 06:37:26;;;;;;;7.40;3.23;;;8.00;61.10;;;;;;4330876;33;20099;-43
2021/04/04 06:40:03;;;;;;;4.87;3.07;;;8.10;61.10;;;;;;4342356;33;20071;-45
2021/04/04 06:43:08;;;;;;;3.80;2.40;;;8.20;60.70;;;;;;4344121;33;20075;-44
2021/04/04 06:45:47;;;;;;;8.10;3.83;;;8.30;60.40;;;;;;4325983;33;20110;-44
2021/04/04 06:48:42;;;;;;;6.60;3.10;;;8.40;60.30;;;;;;4326970;33;20083;-44
2021/04/04 06:52:06;;;;;;;7.65;5.10;;;8.50;60.30;;;;;;4314561;33;20558;-44
2021/04/04 06:54:49;;;;;;;6.77;4.93;;;8.50;59.90;;;;;;4293962;33;20087;-44
2021/04/04 06:57:58;;;;;;;7.57;4.37;;;8.60;59.30;;;;;;4326654;33;20497;-44
2021/04/04 07:00:39;;;;;;;7.53;3.90;;;8.60;59.20;;;;;;4326586;33;20150;-43
2021/04/04 07:03:10;;;;;;;1.67;0.65;;;8.60;59.00;;;;;;4326199;33;20135;-42
2021/04/04 07:06:16;;;;;;;5.20;3.53;;;8.60;59.20;;;;;;4326919;33;20507;-42
2021/04/04 07:09:02;;;;;;;4.37;2.37;;;8.70;59.20;;;;;;4326126;33;20613;-41
2021/04/04 07:11:54;;;;;;;5.77;3.37;;;8.70;58.90;;;;;;4326638;33;20071;-41
2021/04/04 07:14:53;;;;;;;4.62;2.45;;;8.80;58.70;;;;;;4328499;33;20105;-41
2021/04/04 07:18:01;;;;;;;3.57;1.80;;;8.90;58.50;;;;;;4317233;33;20134;-42
2021/04/04 07:20:54;;;;;;;4.05;2.08;;;9.00;58.20;;;;;;4319707;33;20110;-41
2021/04/04 07:23:55;;;;;;;6.10;3.00;;;9.10;58.00;;;;;;4333045;33;20094;-41
2021/04/04 07:26:53;;;;;;;3.90;2.00;;;9.00;57.40;;;;;;4344587;33;20482;-42
2021/04/04 07:30:29;;;;;;;5.20;3.17;;;9.10;57.50;;;;;;4335382;33;20163;-42
2021/04/04 07:33:27;;;;;;;7.80;4.00;;;9.30;57.70;;;;;;4345146;33;20172;-41
2021/04/04 07:36:15;;;;;;;5.90;3.80;;;9.40;57.10;;;;;;4346263;33;20164;-40
2021/04/04 07:39:08;;;;;;;3.17;2.15;;;9.50;56.40;;;;;;4346624;33;20119;-41
2021/04/04 07:42:24;;;;;;;5.97;3.40;;;9.60;56.20;;;;;;4344510;33;20150;-40
2021/04/04 07:45:18;;;;;;;3.15;1.77;;;9.60;55.80;;;;;;4343443;33;20553;-41
2021/04/04 07:48:08;;;;;;;4.22;2.67;;;9.70;55.90;;;;;;4345937;33;20082;-40
2021/04/04 07:50:42;;;;;;;2.65;1.80;;;9.70;56.20;;;;;;4346093;33;20523;-38
2021/04/04 07:53:53;;;;;;;4.37;2.78;;;9.90;56.10;;;;;;4344971;33;20615;-38
2021/04/04 07:56:43;;;;;;;4.43;1.70;;;9.90;55.30;;;;;;4345859;33;20090;-39
2021/04/04 07:59:13;;;;;;;1.65;0.82;;;10.00;55.10;;;;;;4333002;33;20057;-38
2021/04/04 08:02:22;;;;;;;3.03;1.80;;;10.10;54.80;;;;;;4344732;33;20093;-40
2021/04/04 08:04:54;;;;;;;3.80;1.80;;;10.30;55.00;;;;;;4345568;33;20075;-39
2021/04/04 08:07:44;;;;;;;2.65;1.67;;;10.40;54.20;;;;;;4344908;33;20070;-40
2021/04/04 08:10:13;;;;;;;4.12;2.97;;;10.50;53.60;;;;;;4344469;33;20123;-39
2021/04/04 08:12:54;;;;;;;2.25;1.80;;;10.50;52.40;;;;;;4345833;33;20084;-38
2021/04/04 08:15:28;;;;;;;2.17;1.10;;;10.50;52.60;;;;;;4332545;33;20062;-39
2021/04/04 08:17:55;;;;;;;1.98;0.90;;;10.40;52.00;;;;;;4346174;33;20146;-39
2021/04/04 08:20:24;;;;;;;2.60;1.02;;;10.50;52.30;;;;;;4346265;33;20067;-39
2021/04/04 08:23:03;;;;;;;2.45;1.17;;;10.60;52.50;;;;;;4332276;32;20082;-38
2021/04/04 08:25:53;;;;;;;2.03;1.73;;;10.80;52.60;;;;;;4346242;33;20070;-38
2021/04/04 08:28:27;;;;;;;3.12;1.65;;;11.00;52.70;;;;;;4333828;33;20066;-38
2021/04/04 08:31:01;;;;;;;4.28;2.35;;;11.00;50.50;;;;;;4344965;33;20059;-37
2021/04/04 08:33:41;;;;;;;6.15;2.42;;;11.10;50.00;;;;;;4346229;33;20058;-38
2021/04/04 08:36:07;;;;;;;1.92;1.27;;;11.00;49.40;;;;;;4344490;33;20447;-38
2021/04/04 08:38:43;;;;;;;2.62;1.05;;;11.10;50.10;;;;;;4332165;33;20074;-39
2021/04/04 08:41:13;;;;;;;2.37;1.12;;;11.20;51.00;;;;;;4321161;33;20547;-40
2021/04/04 08:43:41;;;;;;;2.30;1.52;;;11.30;49.90;;;;;;4333801;33;20589;-40
2021/04/04 08:46:20;;;;;;;2.12;1.48;;;11.40;49.60;;;;;;4320860;33;20526;-40
2021/04/04 08:48:47;;;;;;;3.08;0.90;;;11.50;49.70;;;;;;4334054;33;20467;-40
2021/04/04 08:51:14;;;;;;;2.03;1.37;;;11.60;49.30;;;;;;4333075;33;20488;-38
2021/04/04 08:53:43;;;;;;;1.80;1.08;;;11.80;49.10;;;;;;4344825;33;20071;-39
2021/04/04 08:56:09;;;;;;;1.58;1.05;;;11.90;48.40;;;;;;4346816;32;20099;-39
2021/04/04 08:58:41;;;;;;;4.37;1.27;;;12.00;46.30;;;;;;4344449;33;20070;-39
2021/04/04 09:01:34;;;;;;;1.55;1.05;;;12.00;45.20;;;;;;4346690;32;20067;-41
2021/04/04 09:04:04;;;;;;;2.30;1.83;;;11.90;45.40;;;;;;4328337;33;20063;-40
2021/04/04 09:06:42;;;;;;;4.15;2.05;;;11.90;44.90;;;;;;4304614;33;20520;-39
2021/04/04 09:09:27;;;;;;;1.35;0.85;;;11.90;44.70;;;;;;4328895;33;20534;-41
2021/04/04 09:11:57;;;;;;;2.83;2.10;;;11.90;44.40;;;;;;4304182;33;20067;-40
2021/04/04 09:14:24;;;;;;;3.83;1.67;;;12.00;44.30;;;;;;4317005;33;20166;-40
2021/04/04 09:16:55;;;;;;;1.77;1.10;;;12.10;44.90;;;;;;4316772;33;20118;-40
2021/04/04 09:20:02;;;;;;;2.28;1.55;;;12.20;44.00;;;;;;4329164;33;20574;-41
2021/04/04 09:22:29;;;;;;;1.48;0.90;;;12.20;44.10;;;;;;4324103;33;20062;-40
2021/04/04 09:25:07;;;;;;;2.80;1.67;;;12.30;43.80;;;;;;4318125;33;20154;-42
2021/04/04 09:27:41;;;;;;;1.45;1.10;;;12.50;43.40;;;;;;4330283;33;20526;-41
2021/04/04 09:30:34;;;;;;;1.27;0.80;;;12.50;39.90;;;;;;4329432;33;20074;-40
2021/04/04 09:33:08;;;;;;;7.12;1.73;;;12.50;39.80;;;;;;4317632;33;20074;-41
2021/04/04 09:35:35;;;;;;;2.08;0.90;;;12.50;41.10;;;;;;4328490;33;20487;-42
2021/04/04 09:38:14;;;;;;;1.85;0.90;;;12.70;40.40;;;;;;4304983;33;20079;-42
2021/04/04 09:40:42;;;;;;;2.22;0.80;;;12.90;39.40;;;;;;4320154;33;20121;-41
2021/04/04 09:43:13;;;;;;;5.40;0.77;;;13.00;37.50;;;;;;4345371;33;20058;-41
2021/04/04 09:45:40;;;;;;;1.48;0.90;;;13.20;38.50;;;;;;4346787;32;20089;-41
2021/04/04 09:48:26;;;;;;;2.72;0.90;;;13.20;37.20;;;;;;4346970;32;20059;-41
2021/04/04 09:51:08;;;;;;;1.33;0.80;;;13.40;37.60;;;;;;4346631;32;20165;-40
2021/04/04 09:53:52;;;;;;;3.12;0.82;;;13.50;36.60;;;;;;4347467;32;20133;-40
2021/04/04 09:56:38;;;;;;;1.40;0.80;;;13.60;35.30;;;;;;4329815;33;20077;-41
2021/04/04 09:59:07;;;;;;;4.43;1.45;;;13.60;33.90;;;;;;4327372;33;20082;-41
2021/04/04 10:01:33;;;;;;;10.65;1.40;;;13.70;35.00;;;;;;4315515;33;20068;-41
2021/04/04 10:04:07;;;;;;;4.68;0.88;;;13.90;35.70;;;;;;4315600;33;20071;-42
2021/04/04 10:06:35;;;;;;;1.67;0.50;;;14.00;34.60;;;;;;4328060;33;20075;-41
2021/04/04 10:09:12;;;;;;;3.45;1.00;;;14.30;34.70;;;;;;4327749;33;20071;-42
2021/04/04 10:11:38;;;;;;;8.80;1.23;;;14.30;31.60;;;;;;4328231;33;20111;-42
2021/04/04 10:14:11;;;;;;;3.20;0.98;;;14.30;32.80;;;;;;4327875;33;20083;-42
2021/04/04 10:16:38;;;;;;;3.42;0.93;;;14.20;31.80;;;;;;4314901;33;20102;-42
2021/04/04 10:19:15;;;;;;;2.15;0.68;;;14.20;30.10;;;;;;4315110;33;20075;-40
2021/04/04 10:21:57;;;;;;;6.47;1.00;;;14.10;31.20;;;;;;4316114;33;20062;-39
2021/04/04 10:24:32;;;;;;;9.27;0.95;;;14.30;31.90;;;;;;4316780;33;20178;-39
2021/04/04 10:27:27;;;;;;;7.90;0.90;;;14.50;30.90;;;;;;4315065;33;20059;-38
2021/04/04 10:30:16;;;;;;;2.15;0.95;;;14.70;30.80;;;;;;4314860;33;20557;-39
2021/04/04 10:32:47;;;;;;;5.18;0.93;;;14.80;30.40;;;;;;4327915;33;20176;-41
2021/04/04 10:35:31;;;;;;;2.87;0.80;;;14.70;30.40;;;;;;4344512;32;20067;-38
2021/04/04 10:38:06;;;;;;;3.75;1.08;;;14.80;30.80;;;;;;4326410;33;20079;-40
2021/04/04 10:40:47;;;;;;;2.87;0.60;;;14.70;30.80;;;;;;4327545;33;20091;-40
2021/04/04 10:43:20;;;;;;;5.05;1.42;;;14.80;31.50;;;;;;4315768;33;20086;-41
2021/04/04 10:46:08;;;;;;;5.35;0.55;;;14.80;31.40;;;;;;4327782;33;20643;-38
2021/04/04 10:48:40;;;;;;;2.60;1.37;;;15.00;32.20;;;;;;4330813;33;20070;-37
2021/04/04 10:51:08;;;;;;;6.45;0.70;;;15.30;32.10;;;;;;4318992;33;20074;-39
2021/04/04 10:53:36;;;;;;;5.93;0.65;;;15.30;30.00;;;;;;4318551;33;20222;-39
2021/04/04 10:56:06;;;;;;;1.70;0.28;;;15.50;29.10;;;;;;4331647;33;20079;-39
2021/04/04 10:58:34;;;;;;;2.80;0.50;;;15.60;28.90;;;;;;4331057;33;20088;-39
2021/04/04 11:01:01;;;;;;;2.53;0.60;;;15.60;29.20;;;;;;4319039;33;20147;-39
2021/04/04 11:03:28;;;;;;;2.62;0.40;;;15.80;30.00;;;;;;4331440;33;20101;-40
2021/04/04 11:05:55;;;;;;;1.37;0.50;;;15.90;28.60;;;;;;4332671;33;20188;-38
2021/04/04 11:08:22;;;;;;;5.00;0.65;;;15.90;28.90;;;;;;4335675;33;20055;-39
2021/04/04 11:10:49;;;;;;;1.02;0.30;;;15.90;28.50;;;;;;4347009;33;20059;-41
2021/04/04 11:13:20;;;;;;;1.92;0.70;;;15.70;27.60;;;;;;4348815;32;20136;-39
2021/04/04 11:16:07;;;;;;;2.17;0.30;;;15.50;28.50;;;;;;4347816;32;20441;-39
2021/04/04 11:18:56;;;;;;;9.32;0.90;;;15.40;29.00;;;;;;4346294;33;20110;-40
2021/04/04 11:21:28;;;;;;;2.00;0.35;;;15.40;28.60;;;;;;4347802;32;20073;-39
2021/04/04 11:23:55;;;;;;;2.40;0.52;;;15.20;28.50;;;;;;4346992;32;20564;-38
2021/04/04 11:26:35;;;;;;;3.17;0.68;;;15.00;28.60;;;;;;4333257;33;20620;-37
2021/04/04 11:29:16;;;;;;;3.70;0.35;;;14.90;28.80;;;;;;4345584;33;20078;-38
2021/04/04 11:31:46;;;;;;;5.95;0.70;;;15.00;28.10;;;;;;4345478;33;20067;-37
2021/04/04 11:34:35;;;;;;;2.00;0.50;;;14.90;28.40;;;;;;4329980;33;20066;-38
2021/04/04 11:37:26;;;;;;;1.70;0.40;;;14.80;28.80;;;;;;4329195;33;20094;-40
2021/04/04 11:40:17;;;;;;;6.40;0.85;;;14.70;29.10;;;;;;4299596;33;20070;-37
2021/04/04 11:42:46;;;;;;;0.82;0.40;;;14.80;29.20;;;;;;4299662;33;20087;-39
2021/04/04 11:45:13;;;;;;;8.30;0.80;;;14.90;29.90;;;;;;4300531;33;20072;-37
2021/04/04 11:47:41;;;;;;;1.15;0.68;;;15.10;29.60;;;;;;4300395;33;20210;-36
2021/04/04 11:50:24;;;;;;;2.25;0.28;;;15.20;29.40;;;;;;4300048;33;20078;-37
2021/04/04 11:52:51;;;;;;;5.43;0.90;;;15.30;29.50;;;;;;4300470;33;20103;-37
2021/04/04 11:55:19;;;;;;;3.12;1.25;;;15.30;30.10;;;;;;4300446;33;20091;-38
2021/04/04 11:57:46;;;;;;;3.15;0.50;;;15.20;29.70;;;;;;4299532;33;20098;-38
2021/04/04 12:00:15;;;;;;;4.87;0.82;;;15.10;30.00;;;;;;4299068;33;20094;-37
2021/04/04 12:03:04;;;;;;;2.47;1.08;;;15.00;29.70;;;;;;4300101;33;20102;-38
2021/04/04 12:05:38;;;;;;;0.95;0.50;;;14.90;30.00;;;;;;4308804;33;20540;-39
2021/04/04 12:08:05;;;;;;;2.60;0.70;;;14.90;30.20;;;;;;4314331;33;20129;-38
2021/04/04 12:10:42;;;;;;;8.68;0.60;;;15.00;30.20;;;;;;4324992;33;20538;-37
2021/04/04 12:13:16;;;;;;;5.72;0.60;;;15.00;30.00;;;;;;4345740;32;20593;-38
2021/04/04 12:15:42;;;;;;;8.13;0.68;;;15.00;29.80;;;;;;4345988;32;20070;-38
2021/04/04 12:18:09;;;;;;;4.78;1.08;;;15.00;30.00;;;;;;4320238;33;20496;-38
2021/04/04 12:20:36;;;;;;;1.95;0.70;;;15.00;29.90;;;;;;4345852;32;20478;-37
2021/04/04 12:23:09;;;;;;;2.08;0.52;;;14.90;29.20;;;;;;4345579;32;20091;-39
2021/04/04 12:25:36;;;;;;;2.00;0.50;;;14.80;29.30;;;;;;4344244;33;20051;-38
2021/04/04 12:28:03;;;;;;;4.80;0.73;;;14.60;29.10;;;;;;4345389;33;20067;-39
2021/04/04 12:30:38;;;;;;;9.60;0.70;;;14.50;29.40;;;;;;4345337;32;20078;-38
2021/04/04 12:33:07;;;;;;;2.30;0.50;;;14.40;29.70;;;;;;4345138;32;20138;-37
2021/04/04 12:35:45;;;;;;;10.85;1.40;;;14.40;29.70;;;;;;4344183;33;20070;-38
2021/04/04 12:38:32;;;;;;;9.82;0.90;;;14.30;29.30;;;;;;4343848;33;20601;-38
2021/04/04 12:41:03;;;;;;;5.85;0.73;;;14.00;29.20;;;;;;4345106;32;20082;-39
2021/04/04 12:43:29;;;;;;;1.95;0.85;;;13.70;29.80;;;;;;4345362;32;20073;-37
2021/04/04 12:45:56;;;;;;;2.87;0.55;;;13.80;30.40;;;;;;4345122;32;20101;-38
2021/04/04 12:48:24;;;;;;;8.40;0.30;;;13.80;30.60;;;;;;4344693;32;20091;-37
2021/04/04 12:50:55;;;;;;;0.32;0.30;;;13.90;30.30;;;;;;4343379;33;20167;-38
2021/04/04 12:53:30;;;;;;;26.27;1.67;;;13.90;30.10;;;;;;4345056;32;20077;-38
2021/04/04 12:55:56;;;;;;;5.10;0.50;;;14.00;30.50;;;;;;4344668;32;20079;-38
2021/04/04 12:58:36;;;;;;;15.98;0.70;;;14.20;30.70;;;;;;4344964;32;20177;-37
2021/04/04 13:01:06;;;;;;;14.23;1.37;;;14.20;31.00;;;;;;4343609;33;20059;-37
2021/04/04 13:03:33;;;;;;;10.73;1.12;;;14.40;30.60;;;;;;4344851;32;20059;-37
2021/04/04 13:06:00;;;;;;;11.70;1.30;;;14.50;30.80;;;;;;4343304;33;20144;-39
2021/04/04 13:08:28;;;;;;;5.12;0.55;;;14.60;30.60;;;;;;4344029;33;20074;-38
2021/04/04 13:11:00;;;;;;;3.65;0.45;;;14.60;30.20;;;;;;4344847;32;20166;-37
2021/04/04 13:13:28;;;;;;;1.50;0.40;;;14.50;30.20;;;;;;4343422;33;20514;-38
2021/04/04 13:16:03;;;;;;;10.73;0.65;;;14.50;30.20;;;;;;4344775;32;20624;-37
2021/04/04 13:18:31;;;;;;;7.07;0.57;;;14.50;30.60;;;;;;4343836;33;20451;-38
2021/04/04 13:21:00;;;;;;;4.82;0.62;;;14.50;30.70;;;;;;4345254;32;20143;-38
2021/04/04 13:23:28;;;;;;;14.60;0.77;;;14.40;30.80;;;;;;4345034;32;20061;-37
2021/04/04 13:25:54;;;;;;;14.68;0.62;;;14.40;30.90;;;;;;4344760;32;20098;-38
2021/04/04 13:28:32;;;;;;;14.57;1.00;;;14.40;30.90;;;;;;4343511;33;20512;-38
2021/04/04 13:31:12;;;;;;;12.88;1.15;;;14.50;31.00;;;;;;4344779;32;20067;-36